MST,Max TemperatureF,Mean TemperatureF,Min TemperatureF,Max Dew PointF,MeanDew PointF,Min DewpointF,Max Humidity, Mean Humidity, Min Humidity, Max Sea Level PressureIn, Mean Sea Level PressureIn, Min Sea Level PressureIn, Max VisibilityMiles, Mean VisibilityMiles, Min VisibilityMiles, Max Wind SpeedMPH, Mean Wind SpeedMPH, Max Gust SpeedMPH,PrecipitationIn, CloudCover, Events, WindDirDegrees
2013-1-1,30,22,14,16,9,5,79,63,51,30.10,30.07,30.04,20,12,8,10,7,,0.00,1,,212
2013-1-2,32,24,17,16,11,7,80,62,37,30.26,30.15,30.09,10,10,10,16,6,21,0.00,6,,232
2013-1-3,35,22,10,12,6,0,74,60,22,30.28,30.24,30.18,10,10,10,14,7,,0.00,2,,201
2013-1-4,44,29,14,14,8,3,74,52,18,30.18,30.10,30.02,10,10,10,9,7,,0.00,0,,211
2013-1-5,39,30,21,19,13,7,86,58,38,30.27,30.15,30.04,10,10,10,12,6,,0.00,0,,218
2013-1-6,42,29,17,23,12,5,74,59,29,30.24,30.11,29.93,20,11,10,13,8,,0.00,1,,194
2013-1-7,53,40,26,23,17,10,74,48,18,30.01,29.91,29.80,20,11,10,14,9,,0.00,1,,193
2013-1-8,55,44,32,25,16,9,75,43,24,30.20,29.91,29.78,10,10,10,21,9,21,0.00,2,,231
2013-1-9,46,36,26,21,20,18,74,56,37,30.29,30.18,30.00,10,10,10,26,11,33,0.00,0,,198
2013-1-10,55,44,32,23,16,9,69,36,15,29.99,29.72,29.45,10,10,7,28,18,36,0.00,0,,205
2013-1-11,44,24,3,27,16,0,93,57,34,29.73,29.45,29.27,10,9,0,29,15,38,0.00,1,Snow,196
2013-1-12,8,2,-9,1,-5,-13,92,82,73,29.96,29.88,29.75,20,12,10,10,7,,0.00,3,,159
2013-1-13,14,2,-11,5,2,-15,85,78,67,30.06,30.00,29.94,20,10,4,8,5,,0.00,5,Snow,169
2013-1-14,10,2,-5,5,-1,-9,92,84,78,30.10,30.04,30.00,10,9,1,8,4,,0.00,4,Snow,204
2013-1-15,33,13,-7,23,2,-13,85,70,44,30.09,30.04,30.01,10,10,10,12,7,,0.00,3,,220
2013-1-16,46,35,24,28,21,16,75,64,49,30.35,30.18,30.09,10,10,10,12,9,,0.00,2,,226
2013-1-17,46,36,26,30,21,18,80,67,43,30.45,30.33,30.14,10,10,10,16,8,,0.00,0,,189
2013-1-18,55,44,33,23,14,7,56,32,14,30.20,30.13,30.06,10,10,10,15,10,,0.00,0,,218
2013-1-19,57,44,32,21,14,7,60,40,16,30.25,30.14,30.07,20,11,10,14,9,,0.00,0,,227
2013-1-20,44,34,23,23,19,16,86,66,31,30.25,30.17,30.11,20,11,10,14,6,,0.00,0,,203
2013-1-21,55,38,21,23,15,7,86,47,18,30.20,30.12,30.06,20,10,10,15,8,,0.00,0,,232
2013-1-22,64,46,28,14,4,-4,48,23,7,30.16,30.08,30.01,10,10,10,16,10,,0.00,0,,223
2013-1-23,60,46,32,19,7,-2,41,26,12,30.16,30.14,30.12,10,10,10,16,11,,0.00,1,,195
2013-1-24,64,48,32,27,16,7,60,39,13,30.12,30.07,29.97,10,10,10,25,8,32,0.00,1,,264
2013-1-25,59,47,35,28,28,27,70,56,29,30.18,30.10,30.06,10,10,10,14,10,24,0.00,2,,218
2013-1-26,55,44,32,37,31,27,93,79,38,30.07,29.93,29.75,20,10,7,9,6,,0.00,3,Rain,214
2013-1-27,53,43,33,36,32,23,100,79,46,29.76,29.73,29.70,20,8,5,16,7,,0.00,1,,225
2013-1-28,55,42,28,32,27,21,100,69,33,29.73,29.68,29.53,20,8,1,29,14,34,0.00,4,Snow,167
2013-1-29,30,26,19,27,21,14,100,87,55,29.90,29.73,29.66,20,9,2,17,10,17,0.00,7,Snow,49
2013-1-30,37,24,10,19,11,5,86,67,30,29.90,29.85,29.79,10,10,10,12,7,,0.00,2,,226
2013-1-31,46,34,23,28,22,18,93,68,34,30.11,29.98,29.87,10,10,10,17,6,17,0.00,1,,177